Pine Bluff, California
Current Conditions -  °F | °C
As of 5:50 AM on Friday 24 Oct 2014 (Local Time) from KMHR Reporting Station
Haze Haze  
Wind Chill: 50°   Ceiling: Unl
Heat Index: 50°   Visibility: 6mi
Dew Point: 50°   Wind: 0mph
Humidity: 100%   Direction: NA
Pressure: 29.97"   Gusts: NA
Location:  38.6648°N, 121.141°W
Report Text: KMHR 241250Z 00000KT 6SM BR SKC 10/10 A2997
Loading
Personal Weather Stations






























Interactive Weather Map
Tropical Storm Tracking
New forecast layout! Learn more

10-Day Weather Forecast

Advertisements
Track Severe Weather on mobile